createdAt,value
2022-08-07T00:02:36.360Z,86446.00
2022-08-07T00:05:07.097Z,86440.80
2022-08-07T00:07:40.850Z,86441.80
2022-08-07T00:10:26.360Z,86447.60
2022-08-07T00:13:17.638Z,86452.00
2022-08-07T00:15:53.602Z,86443.20
2022-08-07T00:18:28.497Z,86443.00
2022-08-07T00:21:07.934Z,86441.40
2022-08-07T00:23:48.919Z,86445.80
2022-08-07T00:26:49.553Z,86449.40
2022-08-07T00:29:07.885Z,86447.60
2022-08-07T00:31:42.070Z,86451.20
2022-08-07T00:34:11.749Z,86447.80
2022-08-07T00:36:43.338Z,86450.20
2022-08-07T00:39:16.976Z,86450.60
2022-08-07T00:42:04.865Z,86445.80
2022-08-07T00:44:38.401Z,86442.20
2022-08-07T00:47:16.142Z,86442.60
2022-08-07T00:50:21.169Z,86439.60
2022-08-07T00:52:49.944Z,86443.40
2022-08-07T00:56:00.340Z,86442.00
2022-08-07T00:58:12.033Z,86441.20
2022-08-07T01:00:53.745Z,86449.60
2022-08-07T01:03:56.583Z,86445.40
2022-08-07T01:06:13.626Z,86442.40
2022-08-07T01:08:53.029Z,86443.40
2022-08-07T01:12:09.941Z,86437.40
2022-08-07T01:14:12.750Z,86439.60
2022-08-07T01:16:47.972Z,86432.40
2022-08-07T01:19:19.838Z,86434.20
2022-08-07T01:21:55.357Z,86431.60
2022-08-07T01:24:25.595Z,86438.80
2022-08-07T01:26:58.608Z,86440.40
2022-08-07T01:29:31.391Z,86435.40
2022-08-07T01:32:05.437Z,86436.20
2022-08-07T01:34:47.457Z,86433.40
2022-08-07T01:37:19.278Z,86433.80
2022-08-07T01:39:50.303Z,86436.60
2022-08-07T01:42:39.948Z,86442.40
2022-08-07T01:45:17.817Z,86444.40
2022-08-07T01:48:19.445Z,86447.00
2022-08-07T01:50:43.243Z,86446.60
2022-08-07T01:53:20.795Z,86446.60
2022-08-07T01:56:12.043Z,86445.00
2022-08-07T01:58:54.660Z,86441.60
2022-08-07T02:01:59.781Z,86447.60
2022-08-07T02:04:56.040Z,86448.80
2022-08-07T02:07:36.142Z,86443.40
2022-08-07T02:10:25.060Z,86445.40
2022-08-07T02:12:59.516Z,86438.00
2022-08-07T02:15:32.426Z,86441.60
2022-08-07T02:18:05.220Z,86442.20
2022-08-07T02:20:36.380Z,86440.00
2022-08-07T02:23:10.391Z,86446.20
2022-08-07T02:26:26.762Z,86443.80
2022-08-07T02:28:36.212Z,86445.60
2022-08-07T02:31:18.685Z,86451.80
2022-08-07T02:34:03.494Z,86448.60
2022-08-07T02:36:36.213Z,86454.60
2022-08-07T02:39:17.342Z,86458.40
2022-08-07T02:42:00.172Z,86452.60
2022-08-07T02:44:34.863Z,86455.20
2022-08-07T02:47:08.315Z,86459.40
2022-08-07T02:49:58.984Z,86461.80
2022-08-07T02:52:40.057Z,86469.00
2022-08-07T02:55:28.491Z,86474.20
2022-08-07T02:58:21.812Z,86474.40
2022-08-07T03:00:56.175Z,86478.60
2022-08-07T03:03:48.936Z,86481.80
2022-08-07T03:06:25.910Z,86477.00
2022-08-07T03:09:12.324Z,86481.80
2022-08-07T03:11:51.729Z,86485.00
2022-08-07T03:14:24.093Z,86491.80
2022-08-07T03:16:54.895Z,86495.60
2022-08-07T03:19:29.030Z,86496.80
2022-08-07T03:22:08.354Z,86501.20
2022-08-07T03:24:50.111Z,86503.40
2022-08-07T03:27:30.588Z,86510.80
2022-08-07T03:30:12.928Z,86517.20
2022-08-07T03:32:58.224Z,86528.40
2022-08-07T03:35:43.471Z,86537.60
2022-08-07T03:38:15.160Z,86537.20
2022-08-07T03:40:46.063Z,86541.00
2022-08-07T03:43:32.322Z,86542.60
2022-08-07T03:46:10.412Z,86544.20
2022-08-07T03:49:02.462Z,86542.80
2022-08-07T03:51:47.899Z,86552.00
2022-08-07T03:54:36.154Z,86552.00
2022-08-07T03:58:33.769Z,86554.60
2022-08-07T04:00:12.598Z,86561.20
2022-08-07T04:02:47.462Z,86561.80
2022-08-07T04:05:24.094Z,86561.00
2022-08-07T04:07:58.654Z,86563.00
2022-08-07T04:10:32.801Z,86564.20
2022-08-07T04:13:15.081Z,86561.80
2022-08-07T04:15:49.030Z,86562.80
2022-08-07T04:18:57.335Z,86570.60
2022-08-07T04:21:10.206Z,86572.20
2022-08-07T04:23:43.994Z,86576.80
2022-08-07T04:26:31.505Z,86583.00
2022-08-07T04:29:01.547Z,86580.80
2022-08-07T04:31:38.394Z,86581.60
2022-08-07T04:34:27.461Z,86582.60
2022-08-07T04:37:02.752Z,86583.00
2022-08-07T04:39:37.658Z,86586.20
2022-08-07T04:42:17.381Z,86582.60
2022-08-07T04:45:02.656Z,86585.80
2022-08-07T04:48:09.851Z,86586.80
2022-08-07T04:51:36.014Z,86587.60
2022-08-07T04:54:18.687Z,86594.00
2022-08-07T04:58:23.958Z,86592.80
2022-08-07T05:00:49.005Z,86593.80
2022-08-07T05:04:07.783Z,86595.40
2022-08-07T05:07:09.595Z,86595.40
2022-08-07T05:10:04.767Z,86599.80
2022-08-07T05:12:46.301Z,86601.40
2022-08-07T05:15:32.562Z,86606.20
2022-08-07T05:18:10.399Z,86601.00
2022-08-07T05:20:55.218Z,86601.40
2022-08-07T05:24:06.184Z,86609.60
2022-08-07T05:26:37.422Z,86600.80
2022-08-07T05:29:11.203Z,86604.20
2022-08-07T05:31:51.123Z,86609.40
2022-08-07T05:34:26.394Z,86610.60
2022-08-07T05:36:58.848Z,86607.20
2022-08-07T05:40:06.618Z,86607.40
2022-08-07T05:42:33.877Z,86610.20
2022-08-07T05:45:26.208Z,86613.60
2022-08-07T05:48:01.970Z,86619.60
2022-08-07T05:50:35.216Z,86625.40
2022-08-07T05:54:12.141Z,86625.40
2022-08-07T05:56:03.004Z,86629.00
2022-08-07T05:58:39.095Z,86627.80
2022-08-07T06:01:12.627Z,86627.20
2022-08-07T06:04:01.224Z,86632.20
2022-08-07T06:06:32.340Z,86637.00
2022-08-07T06:09:04.477Z,86644.00
2022-08-07T06:11:36.208Z,86649.60
2022-08-07T06:14:12.014Z,86649.20
2022-08-07T06:16:55.998Z,86653.80
2022-08-07T06:19:47.860Z,86651.60
2022-08-07T06:22:23.369Z,86654.00
2022-08-07T06:24:58.449Z,86651.40
2022-08-07T06:27:54.428Z,86653.20
2022-08-07T06:30:24.230Z,86654.20
2022-08-07T06:33:15.690Z,86657.40
2022-08-07T06:35:47.662Z,86660.60
2022-08-07T06:38:35.766Z,86670.20
2022-08-07T06:41:13.395Z,86669.80
2022-08-07T06:44:01.294Z,86669.80
2022-08-07T06:46:35.334Z,86671.00
2022-08-07T06:49:06.367Z,86666.60
2022-08-07T06:51:43.424Z,86678.20
2022-08-07T06:55:31.346Z,86679.80
2022-08-07T06:57:12.488Z,86675.40
2022-08-07T07:00:12.200Z,86683.00
2022-08-07T07:02:53.586Z,86686.40
2022-08-07T07:06:05.608Z,86680.60
2022-08-07T07:08:18.887Z,86685.80
2022-08-07T07:10:57.506Z,86685.40
2022-08-07T07:13:57.772Z,86687.80
2022-08-07T07:16:45.421Z,86690.20
2022-08-07T07:19:57.460Z,86696.20
2022-08-07T07:22:36.322Z,86700.60
2022-08-07T07:26:31.358Z,86697.40
2022-08-07T07:29:40.116Z,86697.40
2022-08-07T07:31:46.517Z,86700.40
2022-08-07T07:34:30.902Z,86700.40
2022-08-07T07:37:45.100Z,86698.60
2022-08-07T07:40:02.171Z,86706.00
2022-08-07T07:42:34.827Z,86707.60
2022-08-07T07:45:11.473Z,86711.40
2022-08-07T07:47:52.647Z,86712.60
2022-08-07T07:50:34.008Z,86715.80
2022-08-07T07:53:20.103Z,86724.60
2022-08-07T07:56:01.035Z,86723.60
2022-08-07T07:58:40.903Z,86724.20
2022-08-07T08:02:03.338Z,86729.80
2022-08-07T08:04:11.686Z,86732.40
2022-08-07T08:06:50.754Z,86732.40
2022-08-07T08:09:29.527Z,86727.00
2022-08-07T08:12:05.278Z,86733.00
2022-08-07T08:14:37.221Z,86736.40
2022-08-07T08:17:57.775Z,86738.60
2022-08-07T08:20:17.252Z,86733.80
2022-08-07T08:23:14.933Z,86732.80
2022-08-07T08:26:17.366Z,86733.00
2022-08-07T08:28:49.077Z,86737.60
2022-08-07T08:31:58.839Z,86740.20
2022-08-07T08:34:29.157Z,86737.00
2022-08-07T08:37:01.287Z,86743.20
2022-08-07T08:39:39.273Z,86748.60
2022-08-07T08:43:20.688Z,86749.00
2022-08-07T08:46:08.830Z,86755.60
2022-08-07T08:49:32.858Z,86761.80
2022-08-07T08:52:53.850Z,86759.40
2022-08-07T08:55:58.556Z,86756.40
2022-08-07T08:59:42.294Z,86755.80
2022-08-07T09:02:41.883Z,86763.40
2022-08-07T09:05:42.480Z,86767.60
2022-08-07T09:08:36.601Z,86763.00
2022-08-07T09:11:24.765Z,86763.40
2022-08-07T09:16:20.523Z,86763.40
2022-08-07T09:18:16.898Z,86767.00
2022-08-07T09:21:57.921Z,86766.80
2022-08-07T09:24:59.416Z,86765.00
2022-08-07T09:27:38.324Z,86766.80
2022-08-07T09:30:30.088Z,86768.20
2022-08-07T09:33:52.423Z,86772.20
2022-08-07T09:36:46.841Z,86772.20
2022-08-07T09:39:54.944Z,86773.80
2022-08-07T09:43:10.294Z,86782.20
2022-08-07T09:47:52.124Z,86785.40
2022-08-07T09:50:00.574Z,86789.00
2022-08-07T09:52:34.666Z,86794.20
2022-08-07T09:55:36.983Z,86791.80
2022-08-07T09:58:48.654Z,86795.60
2022-08-07T10:02:07.022Z,86801.60
2022-08-07T10:05:12.561Z,86802.20
2022-08-07T10:08:02.304Z,86798.00
2022-08-07T10:11:58.963Z,86802.40
2022-08-07T10:14:04.295Z,86806.40
2022-08-07T10:17:13.436Z,86800.20
2022-08-07T10:20:07.387Z,86799.00
2022-08-07T10:24:06.372Z,86794.80
2022-08-07T10:26:54.924Z,86800.60
2022-08-07T10:30:26.443Z,86799.40
2022-08-07T10:34:04.966Z,86804.20
2022-08-07T10:37:19.728Z,86808.80
2022-08-07T10:40:30.353Z,86810.20
2022-08-07T10:43:38.646Z,86809.40
2022-08-07T10:46:21.559Z,86819.80
2022-08-07T10:49:24.737Z,86810.40
2022-08-07T10:52:31.939Z,86810.40
2022-08-07T10:55:47.219Z,86814.00
2022-08-07T10:58:36.422Z,86809.40
2022-08-07T11:01:35.586Z,86811.60
2022-08-07T11:04:37.740Z,86823.00
2022-08-07T11:08:03.463Z,86819.00
2022-08-07T11:10:52.347Z,86819.80
2022-08-07T11:14:44.755Z,86825.80
2022-08-07T11:17:07.239Z,86824.80
2022-08-07T11:19:57.185Z,86821.20
2022-08-07T11:22:58.540Z,86827.20
2022-08-07T11:25:52.613Z,86837.60
2022-08-07T11:28:31.341Z,86827.60
2022-08-07T11:31:40.303Z,86826.80
2022-08-07T11:34:18.963Z,86830.00
2022-08-07T11:37:38.392Z,86826.20
2022-08-07T11:40:49.863Z,86834.60
2022-08-07T11:43:54.439Z,86838.60
2022-08-07T11:47:14.750Z,86832.80
2022-08-07T11:50:31.558Z,86843.80
2022-08-07T11:53:25.416Z,86842.40
2022-08-07T11:56:27.599Z,86837.00
2022-08-07T12:00:10.042Z,86840.80
2022-08-07T12:03:03.792Z,86843.60
2022-08-07T12:06:37.034Z,86843.00
2022-08-07T12:09:28.320Z,86836.40
2022-08-07T12:12:19.923Z,86851.60
2022-08-07T12:15:08.215Z,86849.40
2022-08-07T12:18:16.117Z,86851.20
2022-08-07T12:21:20.987Z,86853.20
2022-08-07T12:24:37.613Z,86850.20
2022-08-07T12:27:27.949Z,86857.20
2022-08-07T12:30:11.748Z,86863.40
2022-08-07T12:33:18.741Z,86858.20
2022-08-07T12:35:57.829Z,86862.00
2022-08-07T12:38:42.496Z,86866.20
2022-08-07T12:41:15.309Z,86876.80
2022-08-07T12:44:03.554Z,86872.20
2022-08-07T12:47:30.434Z,86869.60
2022-08-07T12:50:51.806Z,86865.80
2022-08-07T12:54:03.418Z,86869.60
2022-08-07T12:56:35.883Z,86870.80
2022-08-07T12:59:09.702Z,86878.00
2022-08-07T13:02:11.070Z,86878.40
2022-08-07T13:06:03.743Z,86873.40
2022-08-07T13:10:10.923Z,86873.00
2022-08-07T13:12:10.200Z,86876.60
2022-08-07T13:15:38.750Z,86880.40
2022-08-07T13:18:36.022Z,86881.80
2022-08-07T13:21:51.198Z,86883.00
2022-08-07T13:24:43.995Z,86887.00
2022-08-07T13:28:13.809Z,86888.60
2022-08-07T13:30:41.176Z,86890.80
2022-08-07T13:34:30.740Z,86890.20
2022-08-07T13:37:00.853Z,86893.00
2022-08-07T13:40:36.431Z,86885.60
2022-08-07T13:43:16.393Z,86897.20
2022-08-07T13:46:20.770Z,86897.60
2022-08-07T13:48:58.544Z,86891.80
2022-08-07T13:52:05.022Z,86892.80
2022-08-07T13:54:29.424Z,86897.80
2022-08-07T13:57:10.417Z,86892.80
2022-08-07T13:59:55.022Z,86897.40
2022-08-07T14:02:39.538Z,86898.60
2022-08-07T14:05:28.959Z,86902.80
2022-08-07T14:08:10.275Z,86897.40
2022-08-07T14:10:45.732Z,86899.00
2022-08-07T14:13:34.565Z,86900.40
2022-08-07T14:16:15.263Z,86898.80
2022-08-07T14:18:57.201Z,86901.40
2022-08-07T14:22:01.287Z,86906.20
2022-08-07T14:24:41.759Z,86903.60
2022-08-07T14:28:11.492Z,86905.60
2022-08-07T14:30:14.059Z,86906.60
2022-08-07T14:33:04.408Z,86910.00
2022-08-07T14:35:47.410Z,86910.00
2022-08-07T14:38:30.777Z,86908.40
2022-08-07T14:41:12.410Z,86913.40
2022-08-07T14:43:59.026Z,86914.60
2022-08-07T14:46:56.622Z,86908.20
2022-08-07T14:49:58.042Z,86907.40
2022-08-07T14:55:17.967Z,86909.00
2022-08-07T14:57:57.963Z,86914.40
2022-08-07T15:00:35.365Z,86914.20
2022-08-07T15:03:17.492Z,86906.80
2022-08-07T15:05:55.254Z,86902.20
2022-08-07T15:08:52.952Z,86908.80
2022-08-07T15:11:53.124Z,86906.20
2022-08-07T15:14:26.141Z,86904.40
2022-08-07T15:17:11.636Z,86904.20
2022-08-07T15:20:32.560Z,86902.80
2022-08-07T15:22:53.707Z,86901.80
2022-08-07T15:25:37.433Z,86902.20
2022-08-07T15:28:31.176Z,86903.20
2022-08-07T15:31:06.447Z,86908.60
2022-08-07T15:39:20.059Z,86894.40
2022-08-07T15:42:45.602Z,86891.80
2022-08-07T15:44:58.267Z,86892.40
2022-08-07T15:48:01.159Z,86885.00
2022-08-07T15:51:08.066Z,86887.40
2022-08-07T15:53:51.730Z,86886.80
2022-08-07T15:56:35.857Z,86887.00
2022-08-07T15:59:40.095Z,86892.60
2022-08-07T16:02:23.768Z,86885.80
2022-08-07T16:05:01.968Z,86886.00
2022-08-07T16:08:33.706Z,86882.00
2022-08-07T16:10:38.525Z,86876.60
2022-08-07T16:13:57.824Z,86872.80
2022-08-07T16:16:49.842Z,86871.00
2022-08-07T16:19:58.817Z,86862.20
2022-08-07T16:23:12.369Z,86857.60
2022-08-07T16:26:14.420Z,86854.00
2022-08-07T16:30:08.331Z,86849.40
2022-08-07T16:32:03.981Z,86842.60
2022-08-07T16:34:51.215Z,86840.40
2022-08-07T16:38:44.457Z,86838.20
2022-08-07T16:41:20.259Z,86834.80
2022-08-07T16:44:47.325Z,86837.00
2022-08-07T16:48:07.576Z,86836.20
2022-08-07T16:52:01.318Z,86830.40
2022-08-07T16:54:38.074Z,86833.00
2022-08-07T16:58:03.010Z,86829.80
2022-08-07T17:01:34.632Z,86832.80
2022-08-07T17:04:51.176Z,86827.20
2022-08-07T17:07:55.743Z,86817.00
2022-08-07T17:10:54.204Z,86810.00
2022-08-07T17:14:17.976Z,86811.40
2022-08-07T17:16:57.936Z,86810.80
2022-08-07T17:20:01.980Z,86803.00
2022-08-07T17:23:08.653Z,86795.80
2022-08-07T17:26:22.695Z,86791.60
2022-08-07T17:28:59.878Z,86787.40
2022-08-07T17:31:44.264Z,86783.20
2022-08-07T17:34:57.175Z,86785.00
2022-08-07T17:38:06.595Z,86785.80
2022-08-07T17:42:00.987Z,86781.20
2022-08-07T17:44:14.778Z,86779.40
2022-08-07T17:47:05.718Z,86776.60
2022-08-07T17:50:04.195Z,86778.00
2022-08-07T17:52:46.117Z,86772.40
2022-08-07T17:56:00.204Z,86772.80
2022-08-07T17:58:30.805Z,86769.00
2022-08-07T18:01:20.770Z,86769.00
2022-08-07T18:04:30.773Z,86765.40
2022-08-07T18:07:28.473Z,86765.00
2022-08-07T18:12:07.375Z,86755.80
2022-08-07T18:13:51.267Z,86758.60
2022-08-07T18:16:57.523Z,86759.00
2022-08-07T18:21:07.324Z,86750.40
2022-08-07T18:22:48.916Z,86741.40
2022-08-07T18:25:40.276Z,86745.20
2022-08-07T18:28:58.622Z,86744.80
2022-08-07T18:31:49.829Z,86740.80
2022-08-07T18:34:53.417Z,86736.20
2022-08-07T18:38:57.299Z,86732.80
2022-08-07T18:41:17.086Z,86726.00
2022-08-07T18:45:39.502Z,86726.40
2022-08-07T18:47:44.582Z,86721.20
2022-08-07T18:50:46.346Z,86716.60
2022-08-07T18:54:06.089Z,86713.80
2022-08-07T18:57:30.206Z,86717.60
2022-08-07T19:00:32.690Z,86713.80
2022-08-07T19:03:16.396Z,86710.80
2022-08-07T19:06:07.681Z,86707.80
2022-08-07T19:09:08.966Z,86701.80
2022-08-07T19:12:49.197Z,86703.80
2022-08-07T19:16:05.025Z,86695.60
2022-08-07T19:18:45.191Z,86691.80
2022-08-07T19:21:47.524Z,86684.60
2022-08-07T19:24:30.487Z,86691.00
2022-08-07T19:28:29.101Z,86682.80
2022-08-07T19:30:55.191Z,86687.20
2022-08-07T19:33:13.066Z,86682.20
2022-08-07T19:35:52.518Z,86674.80
2022-08-07T19:38:22.847Z,86672.00
2022-08-07T19:40:57.320Z,86674.40
2022-08-07T19:43:43.414Z,86677.00
2022-08-07T19:46:29.019Z,86670.40
2022-08-07T19:49:08.812Z,86666.20
2022-08-07T19:51:51.901Z,86669.20
2022-08-07T19:54:55.829Z,86666.60
2022-08-07T19:58:01.761Z,86667.40
2022-08-07T20:00:36.786Z,86665.40
2022-08-07T20:03:34.697Z,86663.40
2022-08-07T20:06:05.304Z,86656.00
2022-08-07T20:08:41.567Z,86661.40
2022-08-07T20:12:00.913Z,86664.20
2022-08-07T20:14:31.649Z,86659.00
2022-08-07T20:17:06.982Z,86656.40
2022-08-07T20:19:49.440Z,86650.00
2022-08-07T20:22:34.042Z,86643.00
2022-08-07T20:25:19.267Z,86635.00
2022-08-07T20:27:58.277Z,86641.20
2022-08-07T20:30:40.868Z,86639.80
2022-08-07T20:33:36.288Z,86639.20
2022-08-07T20:36:13.364Z,86627.00
2022-08-07T20:39:00.668Z,86624.60
2022-08-07T20:41:40.546Z,86626.40
2022-08-07T20:44:13.059Z,86620.60
2022-08-07T20:46:45.483Z,86617.00
2022-08-07T20:50:00.833Z,86610.00
2022-08-07T20:52:16.468Z,86612.20
2022-08-07T20:54:53.472Z,86621.80
2022-08-07T20:57:30.982Z,86611.80
2022-08-07T21:00:09.431Z,86609.60
2022-08-07T21:03:04.162Z,86610.20
2022-08-07T21:06:21.451Z,86604.80
2022-08-07T21:09:14.070Z,86602.40
2022-08-07T21:11:51.122Z,86591.80
2022-08-07T21:14:32.905Z,86598.20
2022-08-07T21:18:04.070Z,86601.00
2022-08-07T21:20:01.110Z,86599.80
2022-08-07T21:22:51.207Z,86591.80
2022-08-07T21:25:42.670Z,86591.80
2022-08-07T21:28:48.388Z,86594.80
2022-08-07T21:32:47.799Z,86592.20
2022-08-07T21:35:00.693Z,86592.40
2022-08-07T21:37:58.672Z,86598.60
2022-08-07T21:41:37.938Z,86597.40
2022-08-07T21:44:52.615Z,86605.00
2022-08-07T21:47:34.650Z,86587.80
2022-08-07T21:50:16.553Z,86583.00
2022-08-07T21:53:17.609Z,86585.60
2022-08-07T21:56:37.772Z,86577.00
2022-08-07T22:00:04.139Z,86576.00
2022-08-07T22:03:08.509Z,86576.40
2022-08-07T22:06:28.892Z,86570.60
2022-08-07T22:09:12.302Z,86570.60
2022-08-07T22:12:05.994Z,86576.20
2022-08-07T22:16:39.547Z,86577.20
2022-08-07T22:18:08.475Z,86571.00
2022-08-07T22:21:02.380Z,86576.20
2022-08-07T22:23:46.335Z,86579.00
2022-08-07T22:26:22.768Z,86572.60
2022-08-07T22:29:33.754Z,86575.00
2022-08-07T22:32:37.050Z,86569.20
2022-08-07T22:35:13.206Z,86560.60
2022-08-07T22:38:24.113Z,86564.20
2022-08-07T22:42:02.363Z,86557.80
2022-08-07T22:44:19.162Z,86563.80
2022-08-07T22:47:27.294Z,86564.40
2022-08-07T22:50:48.237Z,86573.20
2022-08-07T22:54:08.170Z,86580.40
2022-08-07T22:57:17.272Z,86575.60
2022-08-07T23:00:13.464Z,86574.60
2022-08-07T23:02:59.122Z,86578.80
2022-08-07T23:06:15.371Z,86572.80
2022-08-07T23:10:01.196Z,86573.40
2022-08-07T23:12:34.779Z,86565.00
2022-08-07T23:16:07.211Z,86573.80
2022-08-07T23:19:47.848Z,86566.60
2022-08-07T23:22:52.349Z,86574.80
2022-08-07T23:25:52.915Z,86562.00
2022-08-07T23:28:44.350Z,86555.20
2022-08-07T23:32:48.719Z,86560.00
2022-08-07T23:34:48.605Z,86563.00
2022-08-07T23:37:37.182Z,86559.20
2022-08-07T23:40:36.432Z,86555.60
2022-08-07T23:43:45.998Z,86559.20
2022-08-07T23:46:59.555Z,86554.00
2022-08-07T23:50:06.937Z,86555.40
2022-08-07T23:53:17.384Z,86555.20
2022-08-07T23:56:05.167Z,86552.40
